Time;durP1;ratioP1;P1;durP2;ratioP2;P2;SDS_P1;SDS_P2;PMS_P1;PMS_P2;Temp;Humidity;BMP_temperature;BMP_pressure;BME280_temperature;BME280_humidity;BME280_pressure;Samples;Min_cycle;Max_cycle;Signal;HPM_P1;HPM_P2
2022/08/23 00:01:39;;;;;;;5.38;2.17;;;20.10;68.50;;;;;;5053089;28;20226;-88
2022/08/23 00:04:19;;;;;;;7.93;2.35;;;20.00;68.70;;;;;;5053209;28;20196;-88
2022/08/23 00:06:46;;;;;;;3.20;1.70;;;20.00;68.70;;;;;;5052945;28;20672;-87
2022/08/23 00:09:12;;;;;;;8.32;2.45;;;20.00;68.80;;;;;;5052992;28;20554;-88
2022/08/23 00:11:44;;;;;;;4.60;2.30;;;20.00;68.60;;;;;;5051849;28;20222;-88
2022/08/23 00:14:21;;;;;;;6.03;2.28;;;19.90;68.70;;;;;;5052741;28;20609;-88
2022/08/23 00:16:47;;;;;;;5.20;2.40;;;19.90;68.40;;;;;;5051740;28;20175;-88
2022/08/23 00:19:15;;;;;;;5.22;2.10;;;19.90;68.40;;;;;;5051628;28;20180;-87
2022/08/23 00:21:42;;;;;;;4.45;2.05;;;19.90;68.40;;;;;;5052768;28;20470;-87
2022/08/23 00:24:15;;;;;;;6.28;2.63;;;19.90;68.60;;;;;;5051283;28;20285;-87
2022/08/23 00:26:49;;;;;;;3.85;2.00;;;19.80;68.40;;;;;;5052691;28;20172;-87
2022/08/23 00:29:15;;;;;;;5.20;1.80;;;19.90;68.70;;;;;;5052689;28;20200;-87
2022/08/23 00:31:40;;;;;;;8.25;2.05;;;19.80;68.70;;;;;;5051817;28;20203;-87
2022/08/23 00:34:06;;;;;;;10.68;2.33;;;19.80;68.40;;;;;;5055242;28;20192;-87
2022/08/23 00:36:32;;;;;;;4.93;1.83;;;19.80;68.70;;;;;;5055281;28;20527;-87
2022/08/23 00:38:58;;;;;;;3.83;1.88;;;19.70;68.80;;;;;;5056336;28;20168;-87
2022/08/23 00:41:24;;;;;;;4.68;2.28;;;19.80;68.20;;;;;;5055074;28;20184;-87
2022/08/23 00:49:28;;;;;;;8.32;2.33;;;19.80;68.10;;;;;;5056372;28;20203;-86
2022/08/23 00:51:54;;;;;;;5.95;2.33;;;19.80;67.80;;;;;;5054951;28;20267;-87
2022/08/23 00:54:23;;;;;;;5.32;2.20;;;19.70;68.30;;;;;;5056050;28;20631;-87
2022/08/23 00:56:50;;;;;;;5.63;2.22;;;19.70;68.50;;;;;;5054854;28;20242;-86
2022/08/23 00:59:16;;;;;;;7.40;2.45;;;19.70;68.60;;;;;;5054928;28;20176;-86
2022/08/23 01:01:42;;;;;;;5.07;2.17;;;19.70;68.90;;;;;;5054753;28;20642;-86
2022/08/23 01:04:10;;;;;;;4.72;2.03;;;19.70;68.90;;;;;;5055570;28;20556;-86
2022/08/23 01:07:00;;;;;;;6.78;2.53;;;19.60;68.60;;;;;;5054661;28;20176;-86
2022/08/23 01:09:26;;;;;;;4.90;2.10;;;19.60;68.40;;;;;;5054619;28;20283;-87
2022/08/23 01:12:15;;;;;;;5.45;2.22;;;19.60;68.60;;;;;;5054632;28;20265;-87
2022/08/23 01:14:58;;;;;;;3.85;2.05;;;19.60;68.70;;;;;;5054537;28;20737;-87
2022/08/23 01:17:29;;;;;;;5.70;2.22;;;19.60;68.50;;;;;;5054521;28;20627;-86
2022/08/23 01:20:07;;;;;;;4.25;2.20;;;19.60;68.50;;;;;;5054452;28;20168;-87
2022/08/23 01:22:52;;;;;;;5.03;2.25;;;19.60;68.50;;;;;;5054563;28;20175;-87
2022/08/23 01:25:20;;;;;;;3.63;2.42;;;19.70;68.40;;;;;;5055660;28;20243;-86
2022/08/23 01:27:47;;;;;;;4.50;2.17;;;19.60;68.70;;;;;;5054307;28;20184;-86
2022/08/23 01:30:15;;;;;;;4.75;2.45;;;19.50;68.90;;;;;;5055425;28;20195;-86
2022/08/23 01:32:47;;;;;;;6.55;2.47;;;19.50;69.00;;;;;;5055400;28;20197;-86
2022/08/23 01:35:14;;;;;;;4.10;2.15;;;19.50;69.20;;;;;;5055412;28;20169;-86
2022/08/23 01:37:40;;;;;;;7.28;2.67;;;19.50;69.10;;;;;;5055429;28;20168;-86
2022/08/23 01:40:07;;;;;;;5.15;2.05;;;19.50;69.20;;;;;;5054025;28;20176;-86
2022/08/23 01:42:32;;;;;;;5.95;2.70;;;19.40;69.30;;;;;;5055079;28;20168;-87
2022/08/23 01:44:58;;;;;;;4.20;2.45;;;19.50;69.40;;;;;;5055112;28;20245;-87
2022/08/23 01:47:23;;;;;;;5.70;3.05;;;19.40;69.70;;;;;;5055135;28;20176;-87
2022/08/23 01:49:49;;;;;;;8.02;2.83;;;19.30;69.60;;;;;;5055031;28;20210;-87
2022/08/23 01:52:16;;;;;;;10.75;2.55;;;19.30;69.60;;;;;;5053786;28;20196;-87
2022/08/23 01:54:42;;;;;;;5.93;2.83;;;19.30;69.60;;;;;;5053698;28;20253;-87
2022/08/23 01:57:09;;;;;;;7.97;2.67;;;19.30;69.80;;;;;;5053833;28;20176;-87
2022/08/23 01:59:35;;;;;;;14.32;4.13;;;19.30;69.80;;;;;;5053630;28;20203;-86
2022/08/23 02:02:01;;;;;;;4.97;2.30;;;19.30;69.80;;;;;;5053608;28;20578;-87
2022/08/23 02:04:28;;;;;;;6.95;2.60;;;19.30;69.70;;;;;;5054731;28;20199;-87
2022/08/23 02:06:53;;;;;;;6.03;2.78;;;19.30;69.50;;;;;;5053609;28;20199;-87
2022/08/23 02:09:19;;;;;;;6.97;2.67;;;19.30;69.70;;;;;;5053394;28;20728;-86
2022/08/23 02:11:46;;;;;;;3.85;2.40;;;19.20;69.90;;;;;;5053547;28;20183;-87
2022/08/23 02:14:14;;;;;;;6.53;2.33;;;19.30;70.00;;;;;;5053672;28;20261;-87
2022/08/23 02:16:44;;;;;;;9.30;3.10;;;19.20;70.10;;;;;;5053322;28;20344;-86
2022/08/23 02:19:12;;;;;;;7.25;2.33;;;19.20;70.40;;;;;;5053300;28;20164;-87
2022/08/23 02:21:39;;;;;;;5.97;2.53;;;19.10;70.70;;;;;;5053278;28;20176;-86
2022/08/23 02:24:10;;;;;;;7.50;2.45;;;19.10;70.80;;;;;;5053076;28;20219;-86
2022/08/23 02:26:38;;;;;;;5.13;2.50;;;19.10;70.90;;;;;;5053200;28;20226;-87
2022/08/23 02:29:05;;;;;;;5.18;2.20;;;19.10;71.00;;;;;;5054334;28;20196;-86
2022/08/23 02:31:30;;;;;;;5.45;2.40;;;19.10;71.30;;;;;;5054678;28;20230;-86
2022/08/23 02:33:56;;;;;;;6.07;2.70;;;19.00;71.30;;;;;;5054499;28;20192;-86
2022/08/23 02:36:22;;;;;;;5.80;2.60;;;19.00;71.20;;;;;;5052990;28;20214;-86
2022/08/23 02:38:48;;;;;;;5.10;2.60;;;19.00;71.30;;;;;;5052913;28;20186;-86
2022/08/23 02:41:16;;;;;;;7.32;2.50;;;19.00;71.40;;;;;;5052912;28;20259;-86
2022/08/23 02:43:42;;;;;;;3.55;2.42;;;18.90;71.50;;;;;;5054058;28;20196;-86
2022/08/23 02:46:08;;;;;;;5.95;2.60;;;19.00;71.40;;;;;;5054073;28;20638;-87
2022/08/23 02:48:34;;;;;;;8.93;3.35;;;19.00;71.60;;;;;;5052736;28;20210;-86
2022/08/23 02:51:03;;;;;;;6.00;2.50;;;18.90;71.80;;;;;;5052803;28;20709;-86
2022/08/23 02:53:29;;;;;;;9.43;2.40;;;18.90;71.80;;;;;;5052556;28;20192;-86
2022/08/23 02:55:55;;;;;;;10.05;2.72;;;19.00;71.60;;;;;;5053396;28;20672;-86
2022/08/23 02:58:22;;;;;;;6.32;2.90;;;18.90;71.70;;;;;;5052583;28;20221;-86
2022/08/23 03:00:48;;;;;;;5.95;2.65;;;18.90;71.70;;;;;;5052525;28;20172;-87
2022/08/23 03:03:15;;;;;;;12.25;2.70;;;18.90;71.70;;;;;;5052370;28;20196;-87
2022/08/23 03:05:42;;;;;;;5.22;2.22;;;18.90;71.90;;;;;;5053960;28;20255;-87
2022/08/23 03:08:07;;;;;;;6.13;3.00;;;18.90;72.00;;;;;;5053734;28;20199;-86
2022/08/23 03:10:33;;;;;;;4.90;2.45;;;18.80;72.20;;;;;;5052296;28;20204;-86
2022/08/23 03:12:59;;;;;;;4.15;2.70;;;18.80;72.20;;;;;;5052312;28;20199;-87
2022/08/23 03:15:25;;;;;;;5.00;2.55;;;18.80;72.40;;;;;;5052321;28;20548;-86
2022/08/23 03:17:51;;;;;;;3.35;2.30;;;18.80;72.40;;;;;;5052193;28;20172;-86
2022/08/23 03:20:16;;;;;;;6.13;2.60;;;18.70;72.60;;;;;;5053442;28;20186;-87
2022/08/23 03:22:42;;;;;;;8.65;2.60;;;18.70;72.80;;;;;;5051891;28;20200;-87
2022/08/23 03:25:08;;;;;;;4.63;2.13;;;18.70;72.80;;;;;;5051506;28;20275;-86
2022/08/23 03:27:34;;;;;;;5.60;2.42;;;18.70;73.10;;;;;;5051312;28;20176;-86
2022/08/23 03:30:00;;;;;;;8.30;3.15;;;18.70;73.10;;;;;;5052485;28;20254;-87
2022/08/23 03:32:26;;;;;;;11.07;2.83;;;18.70;73.20;;;;;;5051221;28;20176;-87
2022/08/23 03:34:52;;;;;;;6.22;2.78;;;18.70;73.30;;;;;;5051198;28;20180;-86
2022/08/23 03:37:18;;;;;;;7.30;3.10;;;18.60;73.70;;;;;;5051340;28;20172;-87
2022/08/23 03:39:43;;;;;;;14.23;2.45;;;18.60;73.90;;;;;;5052465;28;20221;-87
2022/08/23 03:42:09;;;;;;;12.50;2.78;;;18.50;74.30;;;;;;5051222;28;20529;-86
2022/08/23 03:44:34;;;;;;;7.90;2.90;;;18.50;74.40;;;;;;5051025;28;20191;-86
2022/08/23 03:47:00;;;;;;;6.85;2.90;;;18.40;74.40;;;;;;5052556;28;20176;-87
2022/08/23 03:49:26;;;;;;;12.18;3.05;;;18.40;74.40;;;;;;5052275;28;20188;-86
2022/08/23 03:51:52;;;;;;;6.65;2.55;;;18.40;74.40;;;;;;5052252;28;20168;-86
2022/08/23 03:54:17;;;;;;;4.07;2.40;;;18.40;74.60;;;;;;5050898;28;20334;-86
2022/08/23 03:56:58;;;;;;;10.40;2.88;;;18.40;74.40;;;;;;5051002;28;20172;-86
2022/08/23 03:59:24;;;;;;;3.88;2.38;;;18.40;74.40;;;;;;5050984;28;20187;-86
2022/08/23 04:01:49;;;;;;;5.30;2.80;;;18.40;74.30;;;;;;5052202;28;20543;-87
2022/08/23 04:04:15;;;;;;;5.38;2.53;;;18.30;74.40;;;;;;5052132;28;20192;-87
2022/08/23 04:06:41;;;;;;;4.95;2.60;;;18.30;74.50;;;;;;5051224;28;20202;-87
2022/08/23 04:09:06;;;;;;;7.75;2.67;;;18.30;74.50;;;;;;5054376;28;20298;-87
2022/08/23 04:11:32;;;;;;;10.70;3.50;;;18.30;74.60;;;;;;5054440;28;20176;-87
2022/08/23 04:13:57;;;;;;;5.88;3.00;;;18.20;74.70;;;;;;5055501;28;20184;-86
2022/08/23 04:16:23;;;;;;;7.47;2.83;;;18.30;74.60;;;;;;5055572;28;20171;-87
2022/08/23 04:18:48;;;;;;;8.40;2.97;;;18.20;74.80;;;;;;5054296;28;20183;-87
2022/08/23 04:21:21;;;;;;;8.27;3.30;;;18.10;75.20;;;;;;5054264;28;20187;-86
2022/08/23 04:23:46;;;;;;;7.78;3.03;;;18.10;75.20;;;;;;5017170;28;1109161;-87
2022/08/23 04:26:12;;;;;;;10.07;2.90;;;18.10;75.20;;;;;;5056765;28;20168;-87
2022/08/23 04:28:38;;;;;;;5.72;3.00;;;18.10;75.40;;;;;;5055334;28;20257;-87
2022/08/23 04:31:04;;;;;;;4.43;2.65;;;18.00;75.50;;;;;;5056043;28;20176;-87
2022/08/23 04:33:31;;;;;;;11.32;3.20;;;18.00;75.60;;;;;;5056481;28;20743;-87
2022/08/23 04:35:58;;;;;;;10.27;3.67;;;18.00;75.60;;;;;;5056550;28;20178;-86
2022/08/23 04:38:24;;;;;;;6.95;3.33;;;18.10;75.50;;;;;;5055248;28;20390;-87
2022/08/23 04:43:34;;;;;;;5.15;2.97;;;18.00;75.60;;;;;;5056315;28;20330;-86
2022/08/23 04:45:59;;;;;;;6.50;2.90;;;18.10;75.60;;;;;;5055219;28;20229;-86
2022/08/23 04:48:25;;;;;;;4.82;2.70;;;18.10;75.50;;;;;;5056284;28;20160;-86
2022/08/23 04:50:51;;;;;;;8.95;3.00;;;18.10;75.40;;;;;;5055070;28;20179;-86
2022/08/23 04:53:17;;;;;;;8.60;3.78;;;18.20;75.50;;;;;;5054948;28;20614;-86
2022/08/23 04:55:42;;;;;;;8.32;3.63;;;18.20;75.60;;;;;;5056215;28;20261;-86
2022/08/23 04:58:08;;;;;;;8.63;3.28;;;18.10;75.60;;;;;;5054931;28;20204;-87
2022/08/23 05:00:33;;;;;;;7.30;3.45;;;18.10;75.70;;;;;;5054777;28;20283;-86
2022/08/23 05:02:59;;;;;;;7.78;3.50;;;18.20;75.80;;;;;;5056145;28;20202;-87
2022/08/23 05:05:26;;;;;;;7.80;3.42;;;18.10;75.80;;;;;;5055999;28;20172;-87
2022/08/23 05:07:52;;;;;;;5.45;3.03;;;18.10;75.80;;;;;;5055908;28;20168;-86
2022/08/23 05:10:18;;;;;;;10.65;3.40;;;18.20;75.60;;;;;;5054639;28;20303;-87
2022/08/23 05:12:44;;;;;;;5.80;3.42;;;18.10;75.70;;;;;;5054605;28;20286;-86
2022/08/23 05:15:11;;;;;;;5.45;3.08;;;18.10;75.80;;;;;;5055772;28;20172;-86
2022/08/23 05:17:37;;;;;;;5.90;3.05;;;18.10;75.90;;;;;;5054153;28;20176;-86
2022/08/23 05:20:07;;;;;;;7.75;2.90;;;18.10;76.10;;;;;;5055708;28;20546;-86
2022/08/23 05:22:34;;;;;;;9.07;3.53;;;18.10;76.10;;;;;;5055499;28;20176;-86
2022/08/23 05:25:00;;;;;;;7.70;3.20;;;18.10;76.20;;;;;;5054500;28;20314;-86
2022/08/23 05:27:25;;;;;;;9.02;3.40;;;18.20;76.20;;;;;;5054309;28;20207;-87
2022/08/23 05:29:53;;;;;;;8.10;3.78;;;18.20;76.40;;;;;;5054243;28;20211;-86
2022/08/23 05:32:19;;;;;;;11.10;3.70;;;18.20;76.50;;;;;;5054120;28;20649;-86
2022/08/23 05:34:45;;;;;;;7.72;3.63;;;18.20;76.40;;;;;;5054194;28;20206;-86
2022/08/23 05:37:11;;;;;;;13.30;3.10;;;18.30;76.40;;;;;;5054215;28;20176;-88
2022/08/23 05:39:36;;;;;;;8.35;3.00;;;18.30;76.30;;;;;;5054158;28;20230;-87
2022/08/23 05:42:03;;;;;;;4.10;3.08;;;18.30;76.50;;;;;;5055338;28;20199;-87
2022/08/23 05:44:29;;;;;;;9.65;3.30;;;18.30;76.40;;;;;;5055256;28;20199;-87
2022/08/23 05:46:54;;;;;;;6.63;3.65;;;18.40;76.30;;;;;;5054076;28;20201;-88
2022/08/23 05:49:20;;;;;;;5.43;3.20;;;18.50;76.30;;;;;;5053923;28;20195;-87
2022/08/23 05:51:45;;;;;;;6.80;3.42;;;18.50;76.00;;;;;;5054025;28;20210;-87
2022/08/23 05:54:11;;;;;;;6.28;3.63;;;18.60;76.00;;;;;;5053954;28;20689;-88
2022/08/23 05:56:41;;;;;;;17.27;3.60;;;18.60;75.70;;;;;;5053855;28;20661;-87
2022/08/23 05:59:08;;;;;;;9.88;3.28;;;18.70;75.40;;;;;;5054651;28;20512;-87
2022/08/23 06:01:35;;;;;;;7.88;3.28;;;18.70;75.30;;;;;;5053789;28;20229;-87
2022/08/23 06:04:04;;;;;;;6.68;2.90;;;18.80;75.30;;;;;;5053585;28;20237;-88
2022/08/23 06:06:30;;;;;;;4.93;2.80;;;18.80;75.00;;;;;;5053680;28;20183;-87
2022/08/23 06:08:56;;;;;;;7.55;3.45;;;18.90;74.90;;;;;;5053464;28;20195;-87
2022/08/23 06:11:24;;;;;;;6.20;3.08;;;19.00;74.40;;;;;;5053624;28;20180;-87
2022/08/23 06:13:53;;;;;;;5.25;3.15;;;19.10;73.40;;;;;;5054753;28;20188;-87
2022/08/23 06:16:25;;;;;;;4.63;3.05;;;19.20;73.20;;;;;;5054719;28;20195;-87
2022/08/23 06:18:52;;;;;;;6.30;2.90;;;19.20;72.80;;;;;;5053534;28;20187;-88
2022/08/23 06:21:17;;;;;;;4.60;2.78;;;19.30;72.30;;;;;;5054482;28;20183;-87
2022/08/23 06:23:46;;;;;;;11.00;3.78;;;19.40;71.60;;;;;;5053172;28;20212;-88
2022/08/23 06:26:18;;;;;;;10.20;3.05;;;19.50;71.30;;;;;;5054557;28;20210;-88
2022/08/23 06:28:46;;;;;;;8.23;2.90;;;19.60;70.70;;;;;;5053293;28;20227;-88
2022/08/23 06:31:12;;;;;;;7.85;3.22;;;19.70;70.80;;;;;;5052541;28;20788;-87
2022/08/23 06:33:41;;;;;;;9.27;3.60;;;19.80;70.70;;;;;;5053079;28;20204;-87
2022/08/23 06:36:09;;;;;;;7.75;2.78;;;19.90;70.50;;;;;;5054504;28;20172;-88
2022/08/23 06:38:35;;;;;;;8.02;3.15;;;20.10;70.30;;;;;;5053436;28;20580;-87
2022/08/23 06:41:07;;;;;;;10.18;3.30;;;20.10;69.90;;;;;;5053342;28;20172;-87
2022/08/23 06:43:34;;;;;;;8.30;3.13;;;20.20;68.10;;;;;;5053170;28;20191;-87
2022/08/23 06:46:10;;;;;;;6.25;3.30;;;20.30;68.50;;;;;;5053618;28;20219;-86
2022/08/23 06:48:37;;;;;;;6.22;3.03;;;20.40;68.80;;;;;;5054240;28;20255;-86
2022/08/23 06:51:08;;;;;;;8.77;3.13;;;20.60;68.00;;;;;;5052814;28;20646;-86
2022/08/23 06:53:33;;;;;;;5.60;3.08;;;20.60;66.30;;;;;;5053463;28;20196;-86
2022/08/23 06:55:59;;;;;;;8.00;2.88;;;20.60;66.80;;;;;;5053153;28;20530;-87
2022/08/23 06:58:24;;;;;;;7.15;2.63;;;20.60;66.80;;;;;;5054015;28;20688;-88
2022/08/23 07:00:50;;;;;;;5.45;2.90;;;20.60;66.70;;;;;;5054976;28;20261;-86
2022/08/23 07:03:16;;;;;;;6.93;3.05;;;20.60;67.30;;;;;;5053993;28;20200;-87
2022/08/23 07:05:41;;;;;;;5.13;2.80;;;20.70;66.90;;;;;;5053707;28;20183;-86
2022/08/23 07:08:07;;;;;;;6.35;2.50;;;20.70;66.70;;;;;;5053344;28;20174;-87
2022/08/23 07:10:33;;;;;;;6.18;3.00;;;20.70;66.70;;;;;;5052952;28;20241;-86
2022/08/23 07:12:58;;;;;;;6.78;2.90;;;20.70;66.10;;;;;;5052822;28;20195;-86
2022/08/23 07:15:24;;;;;;;8.05;2.67;;;20.80;66.90;;;;;;5052534;28;20275;-86
2022/08/23 07:17:49;;;;;;;6.55;2.65;;;20.80;66.70;;;;;;5054239;28;20246;-87
2022/08/23 07:20:15;;;;;;;6.00;2.70;;;21.00;66.90;;;;;;5054088;28;20639;-86
2022/08/23 07:22:40;;;;;;;5.05;2.83;;;21.00;66.20;;;;;;5052124;28;20210;-85
2022/08/23 07:25:06;;;;;;;4.80;2.70;;;21.20;66.30;;;;;;5053395;28;20171;-85
2022/08/23 07:27:32;;;;;;;6.03;2.60;;;21.20;64.80;;;;;;5053375;28;20673;-84
2022/08/23 07:29:57;;;;;;;3.38;2.50;;;21.30;64.90;;;;;;5053202;28;20690;-85
2022/08/23 07:32:23;;;;;;;5.15;2.92;;;21.40;65.10;;;;;;5053398;28;20176;-84
2022/08/23 07:34:48;;;;;;;3.90;2.40;;;21.50;64.40;;;;;;5051900;28;20175;-84
2022/08/23 07:37:16;;;;;;;5.88;2.63;;;21.50;63.40;;;;;;5053256;28;20168;-85
2022/08/23 07:39:42;;;;;;;3.78;2.92;;;21.60;64.40;;;;;;5053086;28;20263;-84
2022/08/23 07:42:08;;;;;;;5.93;2.70;;;21.70;63.30;;;;;;5051693;28;20190;-84
2022/08/23 07:44:33;;;;;;;8.65;3.00;;;21.70;63.30;;;;;;5053030;28;20645;-84
2022/08/23 07:46:59;;;;;;;4.38;2.55;;;21.80;63.30;;;;;;5051819;28;20182;-85
2022/08/23 07:49:26;;;;;;;7.63;2.58;;;21.80;63.50;;;;;;5051800;28;20688;-85
2022/08/23 07:51:51;;;;;;;7.80;2.80;;;21.80;62.60;;;;;;5053411;28;20160;-85
2022/08/23 07:54:20;;;;;;;8.40;3.03;;;22.00;62.70;;;;;;5051839;28;20241;-84
2022/08/23 07:56:45;;;;;;;4.07;2.60;;;22.10;61.60;;;;;;5051682;28;20179;-84
2022/08/23 07:59:11;;;;;;;5.70;2.78;;;22.10;61.30;;;;;;5052955;28;20180;-84
2022/08/23 08:01:38;;;;;;;6.70;2.90;;;22.20;61.40;;;;;;5053019;28;20179;-85
2022/08/23 08:04:05;;;;;;;5.97;2.70;;;22.20;61.50;;;;;;5052885;28;20322;-84
2022/08/23 08:06:37;;;;;;;6.20;2.88;;;22.30;61.60;;;;;;5053357;28;20176;-84
2022/08/23 08:09:04;;;;;;;6.35;2.63;;;22.40;59.90;;;;;;5053316;28;20269;-84
2022/08/23 08:11:32;;;;;;;4.20;2.38;;;22.30;60.70;;;;;;5051674;28;20172;-84
2022/08/23 08:13:57;;;;;;;8.35;2.65;;;22.40;61.40;;;;;;5051517;28;20196;-84
2022/08/23 08:16:29;;;;;;;5.15;2.85;;;22.70;61.00;;;;;;5051575;28;20199;-83
2022/08/23 08:18:58;;;;;;;4.35;2.60;;;22.70;60.40;;;;;;5053184;28;20184;-83
2022/08/23 08:21:25;;;;;;;6.00;2.55;;;22.70;59.80;;;;;;5051669;28;20226;-83
2022/08/23 08:23:51;;;;;;;8.88;2.70;;;22.70;60.40;;;;;;5051382;28;20212;-82
2022/08/23 08:26:17;;;;;;;7.15;2.65;;;22.80;59.00;;;;;;5051799;28;20226;-84
2022/08/23 08:28:44;;;;;;;6.82;2.70;;;22.80;59.30;;;;;;5052617;28;20176;-84
2022/08/23 08:31:11;;;;;;;6.07;3.05;;;22.70;59.90;;;;;;5052726;28;20168;-84
2022/08/23 08:33:37;;;;;;;6.72;2.80;;;22.90;59.60;;;;;;5051302;28;20250;-85
2022/08/23 08:36:04;;;;;;;5.28;2.53;;;23.00;60.10;;;;;;5052613;28;20205;-84
2022/08/23 08:38:30;;;;;;;8.50;2.35;;;23.10;58.40;;;;;;5051358;28;20259;-85
2022/08/23 08:41:16;;;;;;;6.35;2.60;;;23.00;59.20;;;;;;5052689;28;20247;-85
2022/08/23 08:43:50;;;;;;;6.00;2.65;;;23.20;60.00;;;;;;5052875;28;20275;-85
2022/08/23 08:46:41;;;;;;;5.10;2.78;;;23.30;58.20;;;;;;5052775;28;20159;-84
2022/08/23 08:49:13;;;;;;;5.65;2.50;;;23.40;58.00;;;;;;5051859;28;20588;-84
2022/08/23 08:51:52;;;;;;;10.15;3.63;;;23.40;58.70;;;;;;5052911;28;20149;-85
2022/08/23 08:54:20;;;;;;;5.65;2.28;;;23.50;57.70;;;;;;5054050;28;20192;-85
2022/08/23 08:56:50;;;;;;;9.18;2.60;;;23.60;57.60;;;;;;5056234;28;20541;-84
2022/08/23 08:59:26;;;;;;;7.00;2.63;;;23.70;58.40;;;;;;5056651;28;20168;-84
2022/08/23 09:01:52;;;;;;;8.15;2.40;;;23.70;57.40;;;;;;5056072;28;20708;-85
2022/08/23 09:04:18;;;;;;;6.28;2.72;;;23.70;56.80;;;;;;5056187;28;20202;-84
2022/08/23 09:07:21;;;;;;;5.93;2.83;;;23.80;56.80;;;;;;5056042;28;20176;-85
2022/08/23 09:10:10;;;;;;;6.15;2.40;;;24.00;56.70;;;;;;5056131;28;20203;-84
2022/08/23 09:13:02;;;;;;;6.32;2.28;;;24.20;56.20;;;;;;5054520;28;20172;-85
2022/08/23 09:15:45;;;;;;;5.90;2.58;;;24.10;56.30;;;;;;5055952;28;20292;-84
2022/08/23 09:18:14;;;;;;;6.30;2.42;;;24.20;56.20;;;;;;5054606;28;20172;-84
2022/08/23 09:20:42;;;;;;;5.32;2.40;;;24.40;56.00;;;;;;5055463;28;20589;-83
2022/08/23 09:23:14;;;;;;;8.73;2.63;;;24.30;55.10;;;;;;5054612;28;20243;-83
2022/08/23 09:25:40;;;;;;;7.68;2.38;;;24.40;55.80;;;;;;5054906;28;20169;-83
2022/08/23 09:28:06;;;;;;;5.45;2.50;;;24.60;55.10;;;;;;5055747;28;20214;-83
2022/08/23 09:31:04;;;;;;;4.68;2.20;;;24.70;54.90;;;;;;5054387;28;20200;-83
2022/08/23 09:33:41;;;;;;;5.15;2.60;;;24.70;54.80;;;;;;5054444;28;20208;-83
2022/08/23 09:36:25;;;;;;;5.45;2.30;;;24.70;54.70;;;;;;5054410;28;20554;-83
2022/08/23 09:39:21;;;;;;;5.45;2.45;;;24.80;53.30;;;;;;5054505;28;20183;-83
2022/08/23 09:41:47;;;;;;;6.00;2.30;;;24.90;53.50;;;;;;5055708;28;20172;-83
2022/08/23 09:44:32;;;;;;;5.78;2.38;;;25.00;53.20;;;;;;5054573;28;20200;-83
2022/08/23 09:47:13;;;;;;;6.47;2.28;;;25.10;53.70;;;;;;5054676;28;20179;-83
2022/08/23 09:49:41;;;;;;;6.32;2.42;;;25.20;53.30;;;;;;5055678;28;20547;-83
2022/08/23 09:52:18;;;;;;;4.53;2.28;;;25.20;53.10;;;;;;5055763;28;20199;-83
2022/08/23 09:54:54;;;;;;;4.05;2.25;;;25.30;52.10;;;;;;5055684;28;20192;-83
2022/08/23 09:57:26;;;;;;;5.65;2.00;;;25.40;52.40;;;;;;5054163;28;20160;-84
2022/08/23 09:59:54;;;;;;;5.70;2.33;;;25.40;52.90;;;;;;5054143;28;20255;-83
2022/08/23 10:02:20;;;;;;;6.53;2.40;;;25.60;52.10;;;;;;5054047;28;20181;-83
2022/08/23 10:05:26;;;;;;;3.28;1.80;;;25.30;51.40;;;;;;5053801;28;20180;-83
2022/08/23 10:08:01;;;;;;;8.68;2.15;;;25.40;53.10;;;;;;5050837;28;20196;-83
2022/08/23 10:10:42;;;;;;;7.53;2.45;;;25.70;50.10;;;;;;5053676;28;20273;-83
2022/08/23 10:13:08;;;;;;;5.45;2.13;;;25.90;51.20;;;;;;5053687;28;20250;-83
2022/08/23 10:15:44;;;;;;;5.93;1.88;;;26.00;49.80;;;;;;5053724;28;20603;-83
2022/08/23 10:18:14;;;;;;;3.72;1.67;;;26.20;50.60;;;;;;5053568;28;20606;-83
2022/08/23 10:20:51;;;;;;;6.38;2.20;;;26.30;48.90;;;;;;5053547;28;20255;-84
2022/08/23 10:23:42;;;;;;;7.43;2.63;;;26.30;47.80;;;;;;5053466;28;20712;-83
2022/08/23 10:26:23;;;;;;;5.35;2.50;;;26.40;47.30;;;;;;5055742;28;20186;-83
2022/08/23 10:31:57;;;;;;;5.13;1.92;;;26.40;47.20;;;;;;5054832;28;20156;-83
2022/08/23 10:34:44;;;;;;;8.10;2.17;;;26.30;46.70;;;;;;5054649;28;20183;-84
2022/08/23 10:37:31;;;;;;;6.93;2.00;;;26.50;47.50;;;;;;5054732;28;20167;-84
2022/08/23 10:40:09;;;;;;;7.55;2.40;;;26.70;48.40;;;;;;5055293;28;20161;-84
2022/08/23 10:43:19;;;;;;;4.55;2.25;;;26.80;48.00;;;;;;5054724;28;20570;-84
2022/08/23 10:45:47;;;;;;;6.57;1.85;;;26.80;47.50;;;;;;5046247;28;20184;-84
2022/08/23 10:48:28;;;;;;;4.35;2.00;;;27.00;46.90;;;;;;5054607;28;20599;-84
2022/08/23 10:50:58;;;;;;;6.75;2.08;;;27.00;46.50;;;;;;5054518;28;20187;-84
2022/08/23 10:53:58;;;;;;;5.20;2.13;;;27.10;45.70;;;;;;5054599;28;20184;-84
2022/08/23 10:56:24;;;;;;;4.15;1.70;;;27.10;46.60;;;;;;5052722;28;20745;-84
2022/08/23 10:59:06;;;;;;;3.30;1.60;;;27.20;45.90;;;;;;5054145;28;20240;-83
2022/08/23 11:01:44;;;;;;;7.80;2.28;;;27.30;45.90;;;;;;5054307;28;20642;-84
2022/08/23 11:04:35;;;;;;;3.97;1.60;;;27.50;44.90;;;;;;5054368;28;20245;-84
2022/08/23 11:07:33;;;;;;;5.40;1.90;;;27.50;44.30;;;;;;5052960;28;20164;-84
2022/08/23 11:10:41;;;;;;;3.65;1.60;;;27.40;45.10;;;;;;5053968;28;20215;-84
2022/08/23 11:13:12;;;;;;;5.82;1.98;;;27.40;45.00;;;;;;5054168;28;20188;-84
2022/08/23 11:15:44;;;;;;;5.70;1.80;;;27.50;44.80;;;;;;5053808;28;20172;-84
2022/08/23 11:18:33;;;;;;;6.10;2.03;;;27.50;43.90;;;;;;5052591;28;20219;-84
2022/08/23 11:21:05;;;;;;;3.67;1.90;;;27.50;43.20;;;;;;5052822;28;20167;-84
2022/08/23 11:23:39;;;;;;;3.15;1.55;;;27.60;43.30;;;;;;5053483;28;20207;-84
2022/08/23 11:26:10;;;;;;;7.40;1.88;;;27.40;43.50;;;;;;5053782;28;20183;-83
2022/08/23 11:28:43;;;;;;;5.75;1.35;;;27.50;43.60;;;;;;5054567;28;20183;-83
2022/08/23 11:31:20;;;;;;;6.40;1.65;;;27.60;43.10;;;;;;5054015;28;20572;-83
2022/08/23 11:33:52;;;;;;;4.60;1.75;;;27.70;42.60;;;;;;5053068;28;20195;-83
2022/08/23 11:36:24;;;;;;;2.80;1.30;;;27.70;42.30;;;;;;5052591;28;20172;-83
2022/08/23 11:38:49;;;;;;;5.65;1.70;;;28.00;42.30;;;;;;5052239;28;20573;-84
2022/08/23 11:41:18;;;;;;;5.07;1.35;;;28.00;41.80;;;;;;5052426;28;20198;-84
2022/08/23 11:44:05;;;;;;;3.95;1.90;;;28.00;42.70;;;;;;5055136;28;20271;-88
2022/08/23 11:46:54;;;;;;;3.17;1.33;;;28.20;41.30;;;;;;5048940;28;20654;-88
2022/08/23 11:49:29;;;;;;;2.85;1.63;;;28.20;40.20;;;;;;5052655;28;20291;-85
2022/08/23 11:52:16;;;;;;;12.63;2.05;;;28.20;39.70;;;;;;5052782;28;20233;-86
2022/08/23 11:55:10;;;;;;;7.82;1.50;;;28.20;40.50;;;;;;5052093;28;20372;-86
2022/08/23 11:57:54;;;;;;;2.38;1.40;;;28.00;41.90;;;;;;5053117;28;20603;-86
2022/08/23 12:00:26;;;;;;;9.15;1.63;;;28.00;41.80;;;;;;5051853;28;20164;-86
2022/08/23 12:03:05;;;;;;;3.45;1.40;;;28.00;42.00;;;;;;5053121;28;20230;-86
2022/08/23 12:05:33;;;;;;;5.90;1.60;;;28.30;41.60;;;;;;5053131;28;20167;-86
2022/08/23 12:08:02;;;;;;;5.63;1.52;;;28.40;41.30;;;;;;5052978;28;20172;-86
2022/08/23 12:10:39;;;;;;;2.83;1.40;;;28.60;40.20;;;;;;5051626;28;20639;-86
2022/08/23 12:13:48;;;;;;;3.60;1.20;;;28.60;40.60;;;;;;5053113;28;20188;-86
2022/08/23 12:16:17;;;;;;;5.05;1.30;;;28.40;39.50;;;;;;5036742;28;20183;-86
2022/08/23 12:18:52;;;;;;;5.45;1.75;;;28.60;39.30;;;;;;5052951;28;20175;-86
2022/08/23 12:21:26;;;;;;;2.50;1.13;;;28.60;39.30;;;;;;5051596;28;20626;-86
2022/08/23 12:23:59;;;;;;;4.63;1.40;;;28.70;40.40;;;;;;5051536;28;20220;-86
2022/08/23 12:26:33;;;;;;;1.65;1.30;;;28.70;40.90;;;;;;5052943;28;20156;-86
2022/08/23 12:29:16;;;;;;;3.30;1.40;;;28.40;39.80;;;;;;5055598;28;20188;-86
2022/08/23 12:31:56;;;;;;;8.68;1.17;;;28.20;39.70;;;;;;5055556;28;20665;-86
2022/08/23 12:34:26;;;;;;;2.75;1.40;;;28.50;40.50;;;;;;5055897;28;20219;-86
2022/08/23 12:37:07;;;;;;;2.35;1.20;;;28.70;40.20;;;;;;5055309;28;20176;-86
2022/08/23 12:39:51;;;;;;;2.05;1.25;;;28.80;38.30;;;;;;5056672;28;20179;-86
2022/08/23 12:42:23;;;;;;;3.30;1.42;;;28.70;39.30;;;;;;5056162;28;20197;-87
2022/08/23 12:45:03;;;;;;;3.95;1.50;;;29.00;39.40;;;;;;5056990;28;20306;-87
2022/08/23 12:47:29;;;;;;;6.90;1.30;;;29.10;39.20;;;;;;5059950;28;20172;-87
2022/08/23 12:50:08;;;;;;;8.63;1.50;;;29.10;40.60;;;;;;5056572;28;20214;-86
2022/08/23 12:52:36;;;;;;;6.50;2.55;;;29.30;40.10;;;;;;5058642;28;20257;-86
2022/08/23 12:55:11;;;;;;;3.20;1.75;;;29.20;39.30;;;;;;5058114;28;20172;-86
2022/08/23 12:57:38;;;;;;;2.15;1.20;;;29.20;38.00;;;;;;5057464;28;20168;-86
2022/08/23 13:00:13;;;;;;;3.40;1.40;;;28.90;40.30;;;;;;5057523;28;20202;-87
2022/08/23 13:02:43;;;;;;;1.98;1.30;;;29.10;37.60;;;;;;5057192;28;20175;-87
2022/08/23 13:05:16;;;;;;;2.63;1.50;;;28.70;39.40;;;;;;5055393;28;20180;-87
2022/08/23 13:07:41;;;;;;;5.65;1.50;;;28.80;39.00;;;;;;5056515;28;20183;-87
2022/08/23 13:10:09;;;;;;;3.67;1.13;;;29.20;37.60;;;;;;5055969;28;20689;-87
2022/08/23 13:12:36;;;;;;;6.18;1.20;;;29.20;38.80;;;;;;5057113;28;20196;-87
2022/08/23 13:15:04;;;;;;;2.42;1.10;;;29.00;37.80;;;;;;5056020;28;20168;-86